createdAt,value
2019-01-08T00:01:39.018Z,98906.37
2019-01-08T00:04:11.030Z,98896.78
2019-01-08T00:06:43.021Z,98887.81
2019-01-08T00:09:15.052Z,98882.91
2019-01-08T00:11:47.021Z,98872.09
2019-01-08T00:14:19.026Z,98871.55
2019-01-08T00:16:50.979Z,98855.14
2019-01-08T00:19:23.003Z,98855.52
2019-01-08T00:21:55.037Z,98854.34
2019-01-08T00:24:27.013Z,98845.45
2019-01-08T00:26:59.074Z,98832.12
2019-01-08T00:29:31.080Z,98836.53
2019-01-08T00:32:03.089Z,98827.45
2019-01-08T00:34:35.080Z,98820.91
2019-01-08T00:37:07.084Z,98816.61
2019-01-08T00:39:39.083Z,98812.06
2019-01-08T00:42:11.055Z,98809.03
2019-01-08T00:44:43.041Z,98790.30
2019-01-08T00:47:15.283Z,98770.23
2019-01-08T00:49:47.275Z,98777.75
2019-01-08T00:52:19.249Z,98766.29
2019-01-08T00:54:51.307Z,98771.76
2019-01-08T00:57:23.255Z,98767.56
2019-01-08T00:59:55.256Z,98753.97
2019-01-08T01:02:27.238Z,98752.47
2019-01-08T01:04:59.273Z,98747.86
2019-01-08T01:07:31.228Z,98739.58
2019-01-08T01:10:03.298Z,98739.88
2019-01-08T01:12:35.361Z,98744.69
2019-01-08T01:15:08.240Z,98735.89
2019-01-08T01:17:40.243Z,98729.98
2019-01-08T01:20:12.237Z,98731.35
2019-01-08T01:22:44.182Z,98722.63
2019-01-08T01:25:16.165Z,98716.23
2019-01-08T01:27:48.160Z,98696.08
2019-01-08T01:30:20.152Z,98702.79
2019-01-08T01:32:52.134Z,98696.84
2019-01-08T01:35:24.122Z,98693.65
2019-01-08T01:37:56.103Z,98711.91
2019-01-08T01:40:28.052Z,98694.92
2019-01-08T01:43:00.041Z,98692.91
2019-01-08T01:45:32.014Z,98694.47
2019-01-08T01:48:04.002Z,98685.67
2019-01-08T01:50:35.959Z,98683.83
2019-01-08T01:53:07.960Z,98674.14
2019-01-08T01:55:39.938Z,98665.22
2019-01-08T01:58:11.939Z,98665.02
2019-01-08T02:00:43.910Z,98659.75
2019-01-08T02:03:15.925Z,98644.28
2019-01-08T02:05:47.900Z,98642.66
2019-01-08T02:08:19.903Z,98640.42
2019-01-08T02:10:51.876Z,98630.55
2019-01-08T02:13:23.890Z,98614.89
2019-01-08T02:15:55.847Z,98621.48
2019-01-08T02:18:27.822Z,98606.84
2019-01-08T02:20:59.783Z,98611.09
2019-01-08T02:23:31.801Z,98603.30
2019-01-08T02:26:03.749Z,98598.88
2019-01-08T02:28:35.777Z,98591.25
2019-01-08T02:31:07.735Z,98591.85
2019-01-08T02:33:39.711Z,98580.58
2019-01-08T02:36:11.677Z,98568.46
2019-01-08T02:38:43.676Z,98563.41
2019-01-08T02:41:15.688Z,98547.29
2019-01-08T02:43:47.620Z,98538.92
2019-01-08T02:46:19.813Z,98534.75
2019-01-08T02:48:51.860Z,98524.49
2019-01-08T02:51:23.846Z,98526.64
2019-01-08T02:53:55.801Z,98526.94
2019-01-08T02:56:27.800Z,98514.02
2019-01-08T02:58:59.765Z,98520.41
2019-01-08T03:01:31.756Z,98505.27
2019-01-08T03:04:03.708Z,98487.28
2019-01-08T03:06:35.698Z,98487.13
2019-01-08T03:09:07.656Z,98473.62
2019-01-08T03:11:39.636Z,98481.19
2019-01-08T03:14:11.593Z,98453.48
2019-01-08T03:16:43.706Z,98469.48
2019-01-08T03:19:15.656Z,98454.69
2019-01-08T03:21:47.654Z,98443.14
2019-01-08T03:24:19.706Z,98445.25
2019-01-08T03:26:51.801Z,98426.17
2019-01-08T03:29:23.789Z,98426.00
2019-01-08T03:31:55.779Z,98418.20
2019-01-08T03:34:27.734Z,98399.45
2019-01-08T03:36:59.752Z,98395.97
2019-01-08T03:39:31.704Z,98392.47
2019-01-08T03:42:03.773Z,98388.98
2019-01-08T03:44:35.751Z,98385.06
2019-01-08T03:47:07.726Z,98388.23
2019-01-08T03:49:39.704Z,98377.37
2019-01-08T03:52:11.701Z,98366.08
2019-01-08T03:54:43.657Z,98358.88
2019-01-08T03:57:15.727Z,98352.41
2019-01-08T03:59:47.688Z,98352.83
2019-01-08T04:02:19.664Z,98353.48
2019-01-08T04:04:51.660Z,98345.47
2019-01-08T04:07:23.670Z,98358.63
2019-01-08T04:09:55.627Z,98340.80
2019-01-08T04:12:27.618Z,98352.06
2019-01-08T04:14:59.594Z,98340.20
2019-01-08T04:17:31.588Z,98339.00
2019-01-08T04:20:03.613Z,98325.55
2019-01-08T04:22:35.663Z,98319.57
2019-01-08T04:25:07.625Z,98319.07
2019-01-08T04:27:39.625Z,98319.45
2019-01-08T04:30:11.641Z,98306.72
2019-01-08T04:32:43.589Z,98300.73
2019-01-08T04:35:15.558Z,98306.72
2019-01-08T04:37:47.533Z,98297.94
2019-01-08T04:40:19.569Z,98291.39
2019-01-08T04:42:51.549Z,98291.09
2019-01-08T04:45:23.560Z,98280.86
2019-01-08T04:47:55.506Z,98269.49
2019-01-08T04:50:27.517Z,98261.15
2019-01-08T04:52:59.488Z,98250.15
2019-01-08T04:55:31.476Z,98238.24
2019-01-08T04:58:03.446Z,98239.72
2019-01-08T05:00:35.432Z,98235.43
2019-01-08T05:03:07.449Z,98242.25
2019-01-08T05:05:39.428Z,98229.28
2019-01-08T05:08:11.400Z,98228.58
2019-01-08T05:10:43.400Z,98219.28
2019-01-08T05:13:15.519Z,98223.44
2019-01-08T05:15:47.534Z,98214.82
2019-01-08T05:18:19.528Z,98206.93
2019-01-08T05:20:51.530Z,98210.91
2019-01-08T05:23:23.503Z,98214.81
2019-01-08T05:25:55.529Z,98206.73
2019-01-08T05:28:27.496Z,98206.12
2019-01-08T05:30:59.479Z,98207.73
2019-01-08T05:33:31.488Z,98206.73
2019-01-08T05:36:03.476Z,98196.63
2019-01-08T05:38:35.546Z,98198.58
2019-01-08T05:41:07.543Z,98204.02
2019-01-08T05:43:39.578Z,98202.10
2019-01-08T05:46:11.522Z,98198.12
2019-01-08T05:48:43.537Z,98200.77
2019-01-08T05:51:15.502Z,98198.11
2019-01-08T05:53:47.475Z,98191.75
2019-01-08T05:56:19.465Z,98198.23
2019-01-08T05:58:51.546Z,98194.98
2019-01-08T06:01:23.513Z,98199.92
2019-01-08T06:03:55.508Z,98192.45
2019-01-08T06:06:27.475Z,98188.69
2019-01-08T06:08:59.465Z,98196.77
2019-01-08T06:11:31.429Z,98181.84
2019-01-08T06:14:03.424Z,98188.77
2019-01-08T06:16:35.403Z,98186.96
2019-01-08T06:19:07.419Z,98179.48
2019-01-08T06:21:39.430Z,98179.61
2019-01-08T06:24:11.427Z,98185.16
2019-01-08T06:26:43.452Z,98189.61
2019-01-08T06:29:15.441Z,98191.91
2019-01-08T06:31:47.400Z,98188.50
2019-01-08T06:34:19.394Z,98188.63
2019-01-08T06:36:51.364Z,98187.31
2019-01-08T06:39:23.365Z,98187.66
2019-01-08T06:41:55.340Z,98178.31
2019-01-08T06:44:27.341Z,98170.76
2019-01-08T06:46:59.339Z,98169.75
2019-01-08T06:49:31.341Z,98168.88
2019-01-08T06:52:03.291Z,98169.08
2019-01-08T06:54:35.319Z,98165.93
2019-01-08T06:57:07.299Z,98162.81
2019-01-08T06:59:39.322Z,98177.48
2019-01-08T07:02:11.318Z,98176.49
2019-01-08T07:04:43.301Z,98181.52
2019-01-08T07:07:15.289Z,98178.84
2019-01-08T07:09:47.311Z,98166.58
2019-01-08T07:12:19.349Z,98167.26
2019-01-08T07:14:51.318Z,98161.97
2019-01-08T07:17:23.321Z,98169.02
2019-01-08T07:19:55.298Z,98163.58
2019-01-08T07:22:27.323Z,98165.97
2019-01-08T07:24:59.391Z,98167.28
2019-01-08T07:27:31.444Z,98166.48
2019-01-08T07:30:03.740Z,98179.78
2019-01-08T07:32:35.742Z,98173.31
2019-01-08T07:35:07.732Z,98180.19
2019-01-08T07:37:39.727Z,98179.45
2019-01-08T07:40:11.699Z,98182.84
2019-01-08T07:42:43.703Z,98188.50
2019-01-08T07:45:15.703Z,98195.21
2019-01-08T07:47:47.691Z,98194.59
2019-01-08T07:50:19.672Z,98193.83
2019-01-08T07:52:51.672Z,98200.38
2019-01-08T07:55:23.644Z,98189.66
2019-01-08T07:57:55.654Z,98192.06
2019-01-08T08:00:27.639Z,98188.47
2019-01-08T08:02:59.644Z,98187.94
2019-01-08T08:05:31.636Z,98194.25
2019-01-08T08:08:03.626Z,98189.77
2019-01-08T08:10:35.604Z,98187.39
2019-01-08T08:13:07.597Z,98193.55
2019-01-08T08:15:46.604Z,98191.98
2019-01-08T08:18:18.690Z,98189.66
2019-01-08T08:20:50.713Z,98191.64
2019-01-08T08:23:22.762Z,98182.69
2019-01-08T08:25:54.763Z,98180.66
2019-01-08T08:28:26.796Z,98175.98
2019-01-08T08:30:59.217Z,98170.85
2019-01-08T08:33:31.285Z,98166.56
2019-01-08T08:36:03.259Z,98150.90
2019-01-08T08:38:36.639Z,98151.66
2019-01-08T08:41:08.629Z,98145.84
2019-01-08T08:43:40.643Z,98138.64
2019-01-08T08:46:12.662Z,98137.14
2019-01-08T08:48:44.678Z,98137.03
2019-01-08T08:51:16.649Z,98134.80
2019-01-08T08:53:52.573Z,98129.89
2019-01-08T08:56:22.547Z,98124.23
2019-01-08T08:58:54.561Z,98123.52
2019-01-08T09:01:26.561Z,98125.81
2019-01-08T09:03:58.579Z,98128.72
2019-01-08T09:06:30.614Z,98125.94
2019-01-08T09:09:02.762Z,98129.63
2019-01-08T09:11:34.769Z,98122.77
2019-01-08T09:14:06.728Z,98128.72
2019-01-08T09:16:38.748Z,98130.00
2019-01-08T09:19:10.736Z,98127.59
2019-01-08T09:21:42.749Z,98127.64
2019-01-08T09:24:14.724Z,98131.33
2019-01-08T09:26:46.768Z,98138.43
2019-01-08T09:29:18.722Z,98146.91
2019-01-08T09:31:50.713Z,98146.41
2019-01-08T09:34:22.681Z,98136.81
2019-01-08T09:36:54.700Z,98139.84
2019-01-08T09:39:26.681Z,98126.19
2019-01-08T09:41:58.698Z,98142.16
2019-01-08T09:44:30.696Z,98128.34
2019-01-08T09:47:02.678Z,98133.03
2019-01-08T09:49:34.638Z,98134.55
2019-01-08T09:52:06.634Z,98129.34
2019-01-08T09:54:38.619Z,98129.22
2019-01-08T09:57:10.637Z,98123.66
2019-01-08T09:59:42.615Z,98126.19
2019-01-08T10:02:14.635Z,98119.98
2019-01-08T10:04:46.585Z,98108.33
2019-01-08T10:07:18.606Z,98115.81
2019-01-08T10:09:50.587Z,98103.16
2019-01-08T10:12:22.616Z,98094.30
2019-01-08T10:14:54.598Z,98103.66
2019-01-08T10:17:26.642Z,98094.27
2019-01-08T10:19:58.740Z,98084.38
2019-01-08T10:22:30.745Z,98083.39
2019-01-08T10:25:02.846Z,98076.68
2019-01-08T10:27:34.857Z,98075.38
2019-01-08T10:30:08.377Z,98072.98
2019-01-08T10:32:40.391Z,98065.97
2019-01-08T10:35:12.383Z,98072.25
2019-01-08T10:37:44.398Z,98062.36
2019-01-08T10:40:16.392Z,98064.80
2019-01-08T10:42:48.414Z,98061.62
2019-01-08T10:45:20.377Z,98043.33
2019-01-08T10:47:52.391Z,98028.81
2019-01-08T10:50:24.408Z,98028.93
2019-01-08T10:52:56.410Z,98041.67
2019-01-08T10:55:28.413Z,98035.32
2019-01-08T10:58:00.416Z,98020.33
2019-01-08T11:00:32.522Z,98024.70
2019-01-08T11:03:04.530Z,98028.34
2019-01-08T11:05:36.538Z,98028.90
2019-01-08T11:08:08.527Z,98030.06
2019-01-08T11:10:40.638Z,98020.41
2019-01-08T11:13:12.629Z,98012.29
2019-01-08T11:15:44.671Z,98013.96
2019-01-08T11:18:16.732Z,98009.06
2019-01-08T11:20:48.737Z,98004.64
2019-01-08T11:23:20.818Z,97995.48
2019-01-08T11:25:52.810Z,97997.16
2019-01-08T11:28:24.832Z,97999.82
2019-01-08T11:30:56.858Z,98001.59
2019-01-08T11:33:28.835Z,97991.28
2019-01-08T11:36:00.841Z,97982.59
2019-01-08T11:38:32.839Z,97976.87
2019-01-08T11:41:04.859Z,97973.22
2019-01-08T11:43:36.850Z,97966.69
2019-01-08T11:46:08.851Z,97974.84
2019-01-08T11:48:40.844Z,97968.02
2019-01-08T11:51:12.877Z,97972.05
2019-01-08T11:53:44.849Z,97962.94
2019-01-08T11:56:16.900Z,97961.64
2019-01-08T11:58:48.898Z,97960.41
2019-01-08T12:01:20.900Z,97957.19
2019-01-08T12:03:52.919Z,97956.33
2019-01-08T12:06:24.946Z,97946.11
2019-01-08T12:08:56.937Z,97939.80
2019-01-08T12:11:30.453Z,97936.64
2019-01-08T12:14:02.431Z,97933.30
2019-01-08T12:16:34.460Z,97919.13
2019-01-08T12:19:06.451Z,97916.59
2019-01-08T12:21:38.438Z,97909.37
2019-01-08T12:24:10.508Z,97911.64
2019-01-08T12:26:42.475Z,97898.11
2019-01-08T12:29:14.503Z,97897.92
2019-01-08T12:31:46.498Z,97895.70
2019-01-08T12:34:18.509Z,97899.38
2019-01-08T12:36:50.495Z,97887.39
2019-01-08T12:39:22.500Z,97883.00
2019-01-08T12:41:54.524Z,97888.70
2019-01-08T12:44:26.546Z,97874.20
2019-01-08T12:46:58.509Z,97872.27
2019-01-08T12:49:30.496Z,97869.13
2019-01-08T12:52:02.469Z,97876.95
2019-01-08T12:54:34.472Z,97869.13
2019-01-08T12:57:06.466Z,97868.90
2019-01-08T12:59:38.475Z,97860.58
2019-01-08T13:02:14.872Z,97856.63
2019-01-08T13:04:44.401Z,97862.30
2019-01-08T13:07:16.386Z,97839.24
2019-01-08T13:09:48.393Z,97845.06
2019-01-08T13:12:20.402Z,97852.97
2019-01-08T13:14:52.403Z,97860.03
2019-01-08T13:17:24.423Z,97852.32
2019-01-08T13:19:56.438Z,97861.08
2019-01-08T13:22:28.422Z,97854.70
2019-01-08T13:25:00.497Z,97850.70
2019-01-08T13:27:32.491Z,97856.04
2019-01-08T13:30:05.005Z,97848.20
2019-01-08T13:32:36.988Z,97850.77
2019-01-08T13:35:09.011Z,97844.17
2019-01-08T13:37:40.986Z,97853.02
2019-01-08T13:40:12.999Z,97858.97
2019-01-08T13:42:44.973Z,97859.16
2019-01-08T13:45:16.976Z,97870.75
2019-01-08T13:47:48.957Z,97880.82
2019-01-08T13:50:20.977Z,97883.73
2019-01-08T13:52:52.973Z,97883.91
2019-01-08T13:55:24.961Z,97879.91
2019-01-08T13:57:56.997Z,97886.91
2019-01-08T14:00:29.003Z,97897.35
2019-01-08T14:03:01.027Z,97886.19
2019-01-08T14:05:33.032Z,97884.39
2019-01-08T14:08:05.049Z,97887.58
2019-01-08T14:10:37.024Z,97883.14
2019-01-08T14:13:09.036Z,97868.17
2019-01-08T14:15:41.044Z,97869.30
2019-01-08T14:18:13.070Z,97854.12
2019-01-08T14:20:45.066Z,97855.86
2019-01-08T14:23:17.093Z,97860.65
2019-01-08T14:25:49.067Z,97862.73
2019-01-08T14:28:33.388Z,97865.27
2019-01-08T14:31:05.383Z,97857.02
2019-01-08T14:33:37.389Z,97858.89
2019-01-08T14:36:09.400Z,97857.58
2019-01-08T14:38:41.453Z,97855.33
2019-01-08T14:41:13.512Z,97853.86
2019-01-08T14:43:45.549Z,97861.94
2019-01-08T14:46:17.560Z,97866.73
2019-01-08T14:48:49.605Z,97860.78
2019-01-08T14:51:21.656Z,97864.53
2019-01-08T14:53:53.663Z,97862.93
2019-01-08T14:56:25.722Z,97860.32
2019-01-08T14:58:57.766Z,97850.27
2019-01-08T15:01:29.818Z,97853.07
2019-01-08T15:04:01.955Z,97849.80
2019-01-08T15:06:33.990Z,97845.72
2019-01-08T15:09:06.866Z,97838.69
2019-01-08T15:11:38.892Z,97832.64
2019-01-08T15:14:10.930Z,97832.38
2019-01-08T15:16:43.328Z,97843.77
2019-01-08T15:19:15.356Z,97843.28
2019-01-08T15:21:47.371Z,97852.37
2019-01-08T15:24:19.462Z,97846.69
2019-01-08T15:26:51.523Z,97849.86
2019-01-08T15:29:23.584Z,97853.71
2019-01-08T15:31:55.613Z,97851.92
2019-01-08T15:34:27.793Z,97849.12
2019-01-08T15:36:59.877Z,97855.47
2019-01-08T15:39:31.882Z,97860.69
2019-01-08T15:42:03.919Z,97859.75
2019-01-08T15:44:35.905Z,97852.94
2019-01-08T15:47:07.918Z,97851.89
2019-01-08T15:49:39.934Z,97840.89
2019-01-08T15:52:12.008Z,97845.83
2019-01-08T15:54:44.053Z,97841.52
2019-01-08T15:57:16.112Z,97837.42
2019-01-08T15:59:48.135Z,97836.48
2019-01-08T16:02:20.203Z,97828.98
2019-01-08T16:04:52.246Z,97830.36
2019-01-08T16:07:24.315Z,97824.53
2019-01-08T16:09:56.339Z,97826.81
2019-01-08T16:12:28.382Z,97832.35
2019-01-08T16:15:00.515Z,97831.38
2019-01-08T16:17:32.571Z,97836.09
2019-01-08T16:20:04.679Z,97830.39
2019-01-08T16:22:36.722Z,97834.98
2019-01-08T16:25:08.780Z,97832.20
2019-01-08T16:27:40.883Z,97830.07
2019-01-08T16:30:12.886Z,97825.06
2019-01-08T16:32:44.934Z,97829.52
2019-01-08T16:35:17.011Z,97829.48
2019-01-08T16:37:49.097Z,97827.22
2019-01-08T16:40:21.089Z,97835.68
2019-01-08T16:42:53.158Z,97820.08
2019-01-08T16:45:25.154Z,97829.89
2019-01-08T16:47:57.216Z,97836.84
2019-01-08T16:50:29.255Z,97830.38
2019-01-08T16:53:01.321Z,97828.31
2019-01-08T16:55:33.355Z,97829.89
2019-01-08T16:58:05.437Z,97830.38
2019-01-08T17:00:37.439Z,97834.66
2019-01-08T17:03:09.543Z,97838.84
2019-01-08T17:05:41.560Z,97838.22
2019-01-08T17:08:13.616Z,97834.16
2019-01-08T17:10:45.702Z,97841.53
2019-01-08T17:13:17.771Z,97832.64
2019-01-08T17:15:49.766Z,97835.81
2019-01-08T17:18:21.859Z,97837.44
2019-01-08T17:20:53.894Z,97849.52
2019-01-08T17:23:26.007Z,97846.59
2019-01-08T17:25:58.091Z,97850.37
2019-01-08T17:28:30.112Z,97857.45
2019-01-08T17:31:02.187Z,97850.84
2019-01-08T17:33:34.380Z,97856.95
2019-01-08T17:36:06.557Z,97846.97
2019-01-08T17:38:38.572Z,97849.63
2019-01-08T17:41:10.609Z,97846.62
2019-01-08T17:43:42.708Z,97855.23
2019-01-08T17:46:14.793Z,97853.50
2019-01-08T17:48:46.787Z,97860.60
2019-01-08T17:51:18.896Z,97857.52
2019-01-08T17:53:50.895Z,97854.38
2019-01-08T17:56:23.069Z,97859.34
2019-01-08T17:59:15.623Z,97858.33
2019-01-08T18:02:31.041Z,97846.16
2019-01-08T18:05:03.188Z,97843.23
2019-01-08T18:07:35.258Z,97833.80
2019-01-08T18:10:07.869Z,97832.70
2019-01-08T18:12:40.161Z,97825.09
2019-01-08T18:15:12.218Z,97829.05
2019-01-08T18:17:44.262Z,97831.60
2019-01-08T18:20:16.301Z,97825.67
2019-01-08T18:22:48.381Z,97820.34
2019-01-08T18:25:20.448Z,97817.52
2019-01-08T18:28:12.027Z,97826.14
2019-01-08T18:30:44.105Z,97828.67
2019-01-08T18:33:16.199Z,97831.73
2019-01-08T18:35:48.262Z,97831.59
2019-01-08T18:38:20.343Z,97825.66
2019-01-08T18:40:52.385Z,97820.97
2019-01-08T18:43:24.535Z,97826.84
2019-01-08T18:45:56.841Z,97825.91
2019-01-08T18:49:09.735Z,97817.52
2019-01-08T18:51:41.855Z,97821.07
2019-01-08T18:54:16.159Z,97824.87
2019-01-08T18:56:48.196Z,97841.94
2019-01-08T18:59:20.307Z,97837.75
2019-01-08T19:01:52.444Z,97838.75
2019-01-08T19:04:24.668Z,97844.73
2019-01-08T19:06:56.807Z,97840.06
2019-01-08T19:09:49.708Z,97838.52
2019-01-08T19:12:23.733Z,97840.14
2019-01-08T19:14:55.844Z,97851.44
2019-01-08T19:17:27.874Z,97845.17
2019-01-08T19:20:00.185Z,97831.72
2019-01-08T19:22:32.302Z,97839.67
2019-01-08T19:25:04.597Z,97837.19
2019-01-08T19:27:36.719Z,97830.22
2019-01-08T19:30:09.466Z,97819.41
2019-01-08T19:32:41.530Z,97837.66
2019-01-08T19:35:13.664Z,97837.73
2019-01-08T19:37:45.811Z,97845.91
2019-01-08T19:40:17.912Z,97853.89
2019-01-08T19:42:49.997Z,97842.66
2019-01-08T19:45:22.138Z,97833.70
2019-01-08T19:47:54.222Z,97841.32
2019-01-08T19:50:26.368Z,97837.08
2019-01-08T19:52:58.537Z,97849.20
2019-01-08T19:55:30.685Z,97828.42
2019-01-08T19:58:02.718Z,97836.16
2019-01-08T20:00:34.858Z,97824.28
2019-01-08T20:03:06.899Z,97818.16
2019-01-08T20:05:39.048Z,97811.09
2019-01-08T20:08:11.200Z,97830.80
2019-01-08T20:10:43.363Z,97841.94
2019-01-08T20:13:15.476Z,97836.25
2019-01-08T20:15:47.688Z,97841.94
2019-01-08T20:18:19.947Z,97838.53
2019-01-08T20:20:52.262Z,97835.67
2019-01-08T20:23:24.492Z,97836.94
2019-01-08T20:25:56.577Z,97838.16
2019-01-08T20:28:28.717Z,97825.00
2019-01-08T20:31:00.755Z,97822.97
2019-01-08T20:33:32.888Z,97823.22
2019-01-08T20:36:04.968Z,97810.72
2019-01-08T20:38:37.122Z,97817.66
2019-01-08T20:41:09.194Z,97815.52
2019-01-08T20:43:41.376Z,97807.06
2019-01-08T20:46:13.418Z,97813.62
2019-01-08T20:48:45.481Z,97793.22
2019-01-08T20:51:17.528Z,97796.92
2019-01-08T20:53:49.604Z,97806.03
2019-01-08T20:56:21.635Z,97804.52
2019-01-08T20:58:53.751Z,97813.37
2019-01-08T21:01:25.748Z,97808.71
2019-01-08T21:03:57.807Z,97813.87
2019-01-08T21:06:29.882Z,97806.19
2019-01-08T21:09:01.950Z,97806.53
2019-01-08T21:11:33.989Z,97797.42
2019-01-08T21:14:06.062Z,97804.48
2019-01-08T21:16:38.152Z,97796.70
2019-01-08T21:19:10.193Z,97791.73
2019-01-08T21:21:42.232Z,97791.10
2019-01-08T21:24:14.287Z,97791.87
2019-01-08T21:26:46.313Z,97789.04
2019-01-08T21:29:18.432Z,97788.07
2019-01-08T21:31:50.425Z,97783.75
2019-01-08T21:34:22.440Z,97780.20
2019-01-08T21:36:54.447Z,97787.94
2019-01-08T21:39:26.435Z,97778.69
2019-01-08T21:41:58.413Z,97771.08
2019-01-08T21:44:30.475Z,97765.77
2019-01-08T21:47:43.297Z,97761.06
2019-01-08T21:50:15.374Z,97755.27
2019-01-08T21:52:47.344Z,97746.83
2019-01-08T21:55:19.346Z,97751.09
2019-01-08T21:57:51.355Z,97739.55
2019-01-08T22:00:23.412Z,97746.16
2019-01-08T22:02:55.380Z,97758.69
2019-01-08T22:05:27.432Z,97755.53
2019-01-08T22:08:00.715Z,97755.91
2019-01-08T22:10:33.386Z,97757.57
2019-01-08T22:13:05.412Z,97764.98
2019-01-08T22:16:18.213Z,97760.81
2019-01-08T22:18:50.304Z,97759.16
2019-01-08T22:21:22.345Z,97769.97
2019-01-08T22:23:54.311Z,97767.61
2019-01-08T22:26:26.385Z,97767.37
2019-01-08T22:29:39.208Z,97754.32
2019-01-08T22:32:11.248Z,97746.05
2019-01-08T22:34:43.234Z,97742.41
2019-01-08T22:37:15.288Z,97751.31
2019-01-08T22:39:47.293Z,97745.87
2019-01-08T22:42:19.389Z,97739.39
2019-01-08T22:44:51.415Z,97751.11
2019-01-08T22:47:23.536Z,97753.95
2019-01-08T22:49:55.578Z,97759.15
2019-01-08T22:52:27.593Z,97754.34
2019-01-08T22:54:59.617Z,97751.64
2019-01-08T22:57:31.629Z,97746.33
2019-01-08T23:00:46.030Z,97748.64
2019-01-08T23:03:18.140Z,97752.34
2019-01-08T23:05:51.587Z,97744.98
2019-01-08T23:08:24.092Z,97742.97
2019-01-08T23:10:56.053Z,97739.30
2019-01-08T23:13:28.203Z,97740.64
2019-01-08T23:16:00.199Z,97745.39
2019-01-08T23:18:32.223Z,97736.54
2019-01-08T23:21:04.207Z,97747.06
2019-01-08T23:23:36.214Z,97740.11
2019-01-08T23:26:08.281Z,97737.87
2019-01-08T23:28:40.287Z,97736.98
2019-01-08T23:31:12.224Z,97736.95
2019-01-08T23:33:44.197Z,97741.91
2019-01-08T23:36:16.159Z,97729.02
2019-01-08T23:38:48.142Z,97742.64
2019-01-08T23:41:20.111Z,97743.26
2019-01-08T23:43:52.069Z,97748.33
2019-01-08T23:46:24.064Z,97755.43
2019-01-08T23:48:56.000Z,97747.73
2019-01-08T23:51:27.998Z,97744.97
2019-01-08T23:54:00.102Z,97727.77
2019-01-08T23:56:33.574Z,97718.42
2019-01-08T23:59:05.551Z,97724.50
